sensor_id;sensor_type;location;lat;lon;timestamp;P1;durP1;ratioP1;P2;durP2;ratioP2
74459;SDS011;62902;48.854;9.292;2022-11-20T00:01:16;11.13;;;5.78;;
74459;SDS011;62902;48.854;9.292;2022-11-20T00:03:44;12.88;;;5.80;;
74459;SDS011;62902;48.854;9.292;2022-11-20T00:06:12;13.88;;;5.50;;
74459;SDS011;62902;48.854;9.292;2022-11-20T00:08:40;13.70;;;6.25;;
74459;SDS011;62902;48.854;9.292;2022-11-20T00:11:07;11.52;;;5.22;;
74459;SDS011;62902;48.854;9.292;2022-11-20T00:13:45;11.05;;;5.05;;
74459;SDS011;62902;48.854;9.292;2022-11-20T00:16:14;13.55;;;5.07;;
74459;SDS011;62902;48.854;9.292;2022-11-20T00:18:42;13.07;;;5.15;;
74459;SDS011;62902;48.854;9.292;2022-11-20T00:21:10;12.20;;;5.47;;
74459;SDS011;62902;48.854;9.292;2022-11-20T00:23:41;11.98;;;5.13;;
74459;SDS011;62902;48.854;9.292;2022-11-20T00:26:12;12.80;;;5.43;;
74459;SDS011;62902;48.854;9.292;2022-11-20T00:28:40;11.48;;;5.43;;
74459;SDS011;62902;48.854;9.292;2022-11-20T00:31:12;11.07;;;5.07;;
74459;SDS011;62902;48.854;9.292;2022-11-20T00:33:40;11.90;;;5.68;;
74459;SDS011;62902;48.854;9.292;2022-11-20T00:38:35;14.43;;;5.68;;
74459;SDS011;62902;48.854;9.292;2022-11-20T00:41:06;12.60;;;5.35;;
74459;SDS011;62902;48.854;9.292;2022-11-20T00:43:34;13.73;;;5.90;;
74459;SDS011;62902;48.854;9.292;2022-11-20T00:46:06;11.32;;;5.88;;
74459;SDS011;62902;48.854;9.292;2022-11-20T00:48:36;13.35;;;5.60;;
74459;SDS011;62902;48.854;9.292;2022-11-20T00:51:03;14.70;;;6.07;;
74459;SDS011;62902;48.854;9.292;2022-11-20T00:53:30;16.92;;;6.50;;
74459;SDS011;62902;48.854;9.292;2022-11-20T00:56:02;15.60;;;6.10;;
74459;SDS011;62902;48.854;9.292;2022-11-20T00:58:35;15.20;;;5.45;;
74459;SDS011;62902;48.854;9.292;2022-11-20T01:01:10;12.65;;;5.57;;
74459;SDS011;62902;48.854;9.292;2022-11-20T01:03:46;10.57;;;5.13;;
74459;SDS011;62902;48.854;9.292;2022-11-20T01:06:14;12.95;;;5.68;;
74459;SDS011;62902;48.854;9.292;2022-11-20T01:09:05;11.77;;;5.40;;
74459;SDS011;62902;48.854;9.292;2022-11-20T01:11:40;11.15;;;5.20;;
74459;SDS011;62902;48.854;9.292;2022-11-20T01:14:12;14.48;;;5.88;;
74459;SDS011;62902;48.854;9.292;2022-11-20T01:16:41;11.43;;;5.70;;
74459;SDS011;62902;48.854;9.292;2022-11-20T01:19:11;11.45;;;5.53;;
74459;SDS011;62902;48.854;9.292;2022-11-20T01:21:44;11.13;;;5.00;;
74459;SDS011;62902;48.854;9.292;2022-11-20T01:24:12;11.93;;;5.60;;
74459;SDS011;62902;48.854;9.292;2022-11-20T01:26:41;15.02;;;5.53;;
74459;SDS011;62902;48.854;9.292;2022-11-20T01:31:43;13.10;;;5.43;;
74459;SDS011;62902;48.854;9.292;2022-11-20T01:34:11;13.40;;;5.75;;
74459;SDS011;62902;48.854;9.292;2022-11-20T01:36:38;22.60;;;6.65;;
74459;SDS011;62902;48.854;9.292;2022-11-20T01:39:06;13.15;;;5.65;;
74459;SDS011;62902;48.854;9.292;2022-11-20T01:41:40;13.15;;;6.05;;
74459;SDS011;62902;48.854;9.292;2022-11-20T01:47:31;13.00;;;6.18;;
74459;SDS011;62902;48.854;9.292;2022-11-20T01:52:55;14.27;;;5.72;;
74459;SDS011;62902;48.854;9.292;2022-11-20T01:55:34;14.93;;;6.55;;
74459;SDS011;62902;48.854;9.292;2022-11-20T01:58:03;13.40;;;5.47;;
74459;SDS011;62902;48.854;9.292;2022-11-20T02:00:31;13.10;;;5.78;;
74459;SDS011;62902;48.854;9.292;2022-11-20T02:02:58;11.02;;;4.80;;
74459;SDS011;62902;48.854;9.292;2022-11-20T02:05:28;11.93;;;5.43;;
74459;SDS011;62902;48.854;9.292;2022-11-20T02:07:59;11.63;;;5.30;;
74459;SDS011;62902;48.854;9.292;2022-11-20T02:10:26;11.85;;;5.18;;
74459;SDS011;62902;48.854;9.292;2022-11-20T02:12:53;11.55;;;5.03;;
74459;SDS011;62902;48.854;9.292;2022-11-20T02:15:38;9.95;;;4.68;;
74459;SDS011;62902;48.854;9.292;2022-11-20T02:18:06;9.57;;;4.88;;
74459;SDS011;62902;48.854;9.292;2022-11-20T02:20:33;11.45;;;5.43;;
74459;SDS011;62902;48.854;9.292;2022-11-20T02:23:05;11.20;;;5.10;;
74459;SDS011;62902;48.854;9.292;2022-11-20T02:25:38;11.80;;;5.22;;
74459;SDS011;62902;48.854;9.292;2022-11-20T02:28:05;10.57;;;5.03;;
74459;SDS011;62902;48.854;9.292;2022-11-20T02:30:33;9.00;;;5.15;;
74459;SDS011;62902;48.854;9.292;2022-11-20T02:32:59;12.98;;;5.13;;
74459;SDS011;62902;48.854;9.292;2022-11-20T02:37:53;11.70;;;5.75;;
74459;SDS011;62902;48.854;9.292;2022-11-20T02:40:21;12.50;;;5.35;;
74459;SDS011;62902;48.854;9.292;2022-11-20T02:42:51;11.60;;;4.88;;
74459;SDS011;62902;48.854;9.292;2022-11-20T02:45:18;10.93;;;5.15;;
74459;SDS011;62902;48.854;9.292;2022-11-20T02:47:45;16.67;;;4.95;;
74459;SDS011;62902;48.854;9.292;2022-11-20T02:50:12;9.27;;;4.30;;
74459;SDS011;62902;48.854;9.292;2022-11-20T02:52:38;10.63;;;4.63;;
74459;SDS011;62902;48.854;9.292;2022-11-20T02:55:05;9.02;;;4.47;;
74459;SDS011;62902;48.854;9.292;2022-11-20T02:57:32;9.98;;;4.10;;
74459;SDS011;62902;48.854;9.292;2022-11-20T02:59:59;8.45;;;4.10;;
74459;SDS011;62902;48.854;9.292;2022-11-20T03:02:25;7.57;;;3.90;;
74459;SDS011;62902;48.854;9.292;2022-11-20T03:04:52;9.27;;;3.83;;
74459;SDS011;62902;48.854;9.292;2022-11-20T03:07:19;16.25;;;4.65;;
74459;SDS011;62902;48.854;9.292;2022-11-20T03:09:45;10.48;;;3.85;;
74459;SDS011;62902;48.854;9.292;2022-11-20T03:12:12;8.65;;;4.18;;
74459;SDS011;62902;48.854;9.292;2022-11-20T03:14:38;9.70;;;3.72;;
74459;SDS011;62902;48.854;9.292;2022-11-20T03:17:05;10.00;;;3.88;;
74459;SDS011;62902;48.854;9.292;2022-11-20T03:19:32;8.52;;;3.03;;
74459;SDS011;62902;48.854;9.292;2022-11-20T03:22:00;6.15;;;2.83;;
74459;SDS011;62902;48.854;9.292;2022-11-20T03:24:27;6.85;;;2.50;;
74459;SDS011;62902;48.854;9.292;2022-11-20T03:26:54;8.07;;;2.67;;
74459;SDS011;62902;48.854;9.292;2022-11-20T03:29:20;5.32;;;2.75;;
74459;SDS011;62902;48.854;9.292;2022-11-20T03:31:47;5.40;;;2.45;;
74459;SDS011;62902;48.854;9.292;2022-11-20T03:34:14;6.70;;;2.70;;
74459;SDS011;62902;48.854;9.292;2022-11-20T03:36:41;4.55;;;2.22;;
74459;SDS011;62902;48.854;9.292;2022-11-20T03:39:08;4.90;;;2.47;;
74459;SDS011;62902;48.854;9.292;2022-11-20T03:41:36;5.10;;;2.20;;
74459;SDS011;62902;48.854;9.292;2022-11-20T03:44:04;5.95;;;2.53;;
74459;SDS011;62902;48.854;9.292;2022-11-20T03:46:32;6.53;;;2.35;;
74459;SDS011;62902;48.854;9.292;2022-11-20T03:48:59;5.53;;;2.28;;
74459;SDS011;62902;48.854;9.292;2022-11-20T03:51:26;5.28;;;2.30;;
74459;SDS011;62902;48.854;9.292;2022-11-20T03:53:56;4.72;;;2.58;;
74459;SDS011;62902;48.854;9.292;2022-11-20T03:56:34;5.35;;;2.22;;
74459;SDS011;62902;48.854;9.292;2022-11-20T03:59:02;5.80;;;2.28;;
74459;SDS011;62902;48.854;9.292;2022-11-20T04:01:31;5.35;;;2.58;;
74459;SDS011;62902;48.854;9.292;2022-11-20T04:03:59;4.40;;;2.22;;
74459;SDS011;62902;48.854;9.292;2022-11-20T04:06:26;5.35;;;2.60;;
74459;SDS011;62902;48.854;9.292;2022-11-20T04:08:55;5.70;;;2.65;;
74459;SDS011;62902;48.854;9.292;2022-11-20T04:11:23;5.78;;;2.63;;
74459;SDS011;62902;48.854;9.292;2022-11-20T04:13:55;6.82;;;2.55;;
74459;SDS011;62902;48.854;9.292;2022-11-20T04:16:23;5.68;;;2.90;;
74459;SDS011;62902;48.854;9.292;2022-11-20T04:18:52;6.68;;;2.63;;
74459;SDS011;62902;48.854;9.292;2022-11-20T04:21:19;5.40;;;2.42;;
74459;SDS011;62902;48.854;9.292;2022-11-20T04:23:46;6.18;;;2.83;;
74459;SDS011;62902;48.854;9.292;2022-11-20T04:26:13;6.60;;;3.00;;
74459;SDS011;62902;48.854;9.292;2022-11-20T04:28:40;5.40;;;2.58;;
74459;SDS011;62902;48.854;9.292;2022-11-20T04:31:13;5.32;;;2.50;;
74459;SDS011;62902;48.854;9.292;2022-11-20T04:33:43;8.55;;;3.15;;
74459;SDS011;62902;48.854;9.292;2022-11-20T04:36:14;4.55;;;2.13;;
74459;SDS011;62902;48.854;9.292;2022-11-20T04:38:42;5.22;;;2.15;;
74459;SDS011;62902;48.854;9.292;2022-11-20T04:41:15;5.25;;;2.63;;
74459;SDS011;62902;48.854;9.292;2022-11-20T04:46:15;5.78;;;2.75;;
74459;SDS011;62902;48.854;9.292;2022-11-20T04:48:42;4.95;;;2.55;;
74459;SDS011;62902;48.854;9.292;2022-11-20T04:51:08;5.90;;;2.45;;
74459;SDS011;62902;48.854;9.292;2022-11-20T04:53:35;6.05;;;2.83;;
74459;SDS011;62902;48.854;9.292;2022-11-20T04:56:06;6.20;;;2.92;;
74459;SDS011;62902;48.854;9.292;2022-11-20T04:58:33;6.88;;;2.78;;
74459;SDS011;62902;48.854;9.292;2022-11-20T05:01:01;7.20;;;2.80;;
74459;SDS011;62902;48.854;9.292;2022-11-20T05:03:32;5.28;;;2.70;;
74459;SDS011;62902;48.854;9.292;2022-11-20T05:06:05;7.78;;;3.20;;
74459;SDS011;62902;48.854;9.292;2022-11-20T05:08:32;6.10;;;2.70;;
74459;SDS011;62902;48.854;9.292;2022-11-20T05:11:02;5.78;;;2.72;;
74459;SDS011;62902;48.854;9.292;2022-11-20T05:13:34;5.25;;;2.50;;
74459;SDS011;62902;48.854;9.292;2022-11-20T05:16:05;7.85;;;2.88;;
74459;SDS011;62902;48.854;9.292;2022-11-20T05:18:37;8.13;;;3.00;;
74459;SDS011;62902;48.854;9.292;2022-11-20T05:21:04;5.65;;;2.25;;
74459;SDS011;62902;48.854;9.292;2022-11-20T05:23:32;4.72;;;2.22;;
74459;SDS011;62902;48.854;9.292;2022-11-20T05:25:58;5.72;;;2.78;;
74459;SDS011;62902;48.854;9.292;2022-11-20T05:28:26;6.65;;;2.75;;
74459;SDS011;62902;48.854;9.292;2022-11-20T05:30:53;6.75;;;3.20;;
74459;SDS011;62902;48.854;9.292;2022-11-20T05:33:20;5.55;;;2.67;;
74459;SDS011;62902;48.854;9.292;2022-11-20T05:35:48;5.32;;;2.47;;
74459;SDS011;62902;48.854;9.292;2022-11-20T05:38:14;6.05;;;2.42;;
74459;SDS011;62902;48.854;9.292;2022-11-20T05:40:41;4.22;;;2.35;;
74459;SDS011;62902;48.854;9.292;2022-11-20T05:43:08;6.05;;;2.90;;
74459;SDS011;62902;48.854;9.292;2022-11-20T05:45:35;5.68;;;2.88;;
74459;SDS011;62902;48.854;9.292;2022-11-20T05:48:01;5.40;;;2.47;;
74459;SDS011;62902;48.854;9.292;2022-11-20T05:50:28;4.65;;;2.30;;
74459;SDS011;62902;48.854;9.292;2022-11-20T05:52:57;7.55;;;2.50;;
74459;SDS011;62902;48.854;9.292;2022-11-20T05:55:25;5.50;;;1.95;;
74459;SDS011;62902;48.854;9.292;2022-11-20T05:57:53;4.53;;;2.28;;
74459;SDS011;62902;48.854;9.292;2022-11-20T06:02:47;4.68;;;2.00;;
74459;SDS011;62902;48.854;9.292;2022-11-20T06:05:14;7.82;;;2.55;;
74459;SDS011;62902;48.854;9.292;2022-11-20T06:07:40;5.63;;;2.28;;
74459;SDS011;62902;48.854;9.292;2022-11-20T06:10:07;5.32;;;2.55;;
74459;SDS011;62902;48.854;9.292;2022-11-20T06:12:34;5.35;;;2.58;;
74459;SDS011;62902;48.854;9.292;2022-11-20T06:15:01;5.57;;;2.38;;
74459;SDS011;62902;48.854;9.292;2022-11-20T06:17:27;5.13;;;2.03;;
74459;SDS011;62902;48.854;9.292;2022-11-20T06:19:54;6.70;;;2.60;;
74459;SDS011;62902;48.854;9.292;2022-11-20T06:22:20;7.25;;;2.80;;
74459;SDS011;62902;48.854;9.292;2022-11-20T06:24:47;4.78;;;2.33;;
74459;SDS011;62902;48.854;9.292;2022-11-20T06:27:14;6.38;;;2.30;;
74459;SDS011;62902;48.854;9.292;2022-11-20T06:29:40;4.45;;;2.28;;
74459;SDS011;62902;48.854;9.292;2022-11-20T06:32:07;4.63;;;2.30;;
74459;SDS011;62902;48.854;9.292;2022-11-20T06:34:34;4.45;;;2.30;;
74459;SDS011;62902;48.854;9.292;2022-11-20T06:37:00;4.82;;;2.25;;
74459;SDS011;62902;48.854;9.292;2022-11-20T06:39:27;6.43;;;2.10;;
74459;SDS011;62902;48.854;9.292;2022-11-20T06:41:54;4.72;;;2.22;;
74459;SDS011;62902;48.854;9.292;2022-11-20T06:44:24;5.20;;;2.47;;
74459;SDS011;62902;48.854;9.292;2022-11-20T06:46:50;5.35;;;2.53;;
74459;SDS011;62902;48.854;9.292;2022-11-20T06:49:17;5.25;;;2.40;;
74459;SDS011;62902;48.854;9.292;2022-11-20T06:51:44;3.65;;;2.05;;
74459;SDS011;62902;48.854;9.292;2022-11-20T06:54:11;5.63;;;2.28;;
74459;SDS011;62902;48.854;9.292;2022-11-20T06:56:38;5.00;;;2.35;;
74459;SDS011;62902;48.854;9.292;2022-11-20T06:59:05;4.88;;;2.10;;
74459;SDS011;62902;48.854;9.292;2022-11-20T07:01:32;5.32;;;2.22;;
74459;SDS011;62902;48.854;9.292;2022-11-20T07:03:59;4.40;;;2.30;;
74459;SDS011;62902;48.854;9.292;2022-11-20T07:06:25;4.47;;;2.03;;
74459;SDS011;62902;48.854;9.292;2022-11-20T07:08:52;5.82;;;2.25;;
74459;SDS011;62902;48.854;9.292;2022-11-20T07:11:19;3.83;;;1.90;;
74459;SDS011;62902;48.854;9.292;2022-11-20T07:13:45;4.95;;;2.17;;
74459;SDS011;62902;48.854;9.292;2022-11-20T07:16:12;6.22;;;2.00;;
74459;SDS011;62902;48.854;9.292;2022-11-20T07:18:39;5.22;;;2.17;;
74459;SDS011;62902;48.854;9.292;2022-11-20T07:21:06;5.03;;;2.00;;
74459;SDS011;62902;48.854;9.292;2022-11-20T07:23:35;5.13;;;2.03;;
74459;SDS011;62902;48.854;9.292;2022-11-20T07:26:06;4.60;;;2.03;;
74459;SDS011;62902;48.854;9.292;2022-11-20T07:28:34;5.65;;;2.30;;
74459;SDS011;62902;48.854;9.292;2022-11-20T07:31:01;4.72;;;2.00;;
74459;SDS011;62902;48.854;9.292;2022-11-20T07:33:28;5.07;;;2.05;;
74459;SDS011;62902;48.854;9.292;2022-11-20T07:35:55;9.23;;;2.10;;
74459;SDS011;62902;48.854;9.292;2022-11-20T07:38:21;7.07;;;2.28;;
74459;SDS011;62902;48.854;9.292;2022-11-20T07:40:48;4.35;;;1.80;;
74459;SDS011;62902;48.854;9.292;2022-11-20T07:43:15;5.78;;;1.92;;
74459;SDS011;62902;48.854;9.292;2022-11-20T07:45:43;6.20;;;2.17;;
74459;SDS011;62902;48.854;9.292;2022-11-20T07:48:09;4.72;;;1.98;;
74459;SDS011;62902;48.854;9.292;2022-11-20T07:50:36;4.20;;;2.00;;
74459;SDS011;62902;48.854;9.292;2022-11-20T07:53:04;5.82;;;2.03;;
74459;SDS011;62902;48.854;9.292;2022-11-20T07:55:31;4.32;;;1.83;;
74459;SDS011;62902;48.854;9.292;2022-11-20T07:57:58;6.22;;;2.40;;
74459;SDS011;62902;48.854;9.292;2022-11-20T08:00:25;4.35;;;1.83;;
74459;SDS011;62902;48.854;9.292;2022-11-20T08:02:53;5.45;;;2.05;;
74459;SDS011;62902;48.854;9.292;2022-11-20T08:05:19;4.28;;;2.03;;
74459;SDS011;62902;48.854;9.292;2022-11-20T08:07:46;4.72;;;2.08;;
74459;SDS011;62902;48.854;9.292;2022-11-20T08:10:14;4.78;;;2.20;;
74459;SDS011;62902;48.854;9.292;2022-11-20T08:12:46;3.95;;;2.00;;
74459;SDS011;62902;48.854;9.292;2022-11-20T08:15:32;3.72;;;1.73;;
74459;SDS011;62902;48.854;9.292;2022-11-20T08:18:07;4.25;;;2.20;;
74459;SDS011;62902;48.854;9.292;2022-11-20T08:20:55;5.05;;;2.50;;
74459;SDS011;62902;48.854;9.292;2022-11-20T08:23:22;4.55;;;1.95;;
74459;SDS011;62902;48.854;9.292;2022-11-20T08:25:49;4.53;;;2.05;;
74459;SDS011;62902;48.854;9.292;2022-11-20T08:28:16;7.88;;;2.45;;
74459;SDS011;62902;48.854;9.292;2022-11-20T08:30:47;3.88;;;2.10;;
74459;SDS011;62902;48.854;9.292;2022-11-20T08:33:14;7.68;;;1.80;;
74459;SDS011;62902;48.854;9.292;2022-11-20T08:35:41;3.95;;;1.90;;
74459;SDS011;62902;48.854;9.292;2022-11-20T08:38:09;6.35;;;1.90;;
74459;SDS011;62902;48.854;9.292;2022-11-20T08:40:35;4.30;;;2.00;;
74459;SDS011;62902;48.854;9.292;2022-11-20T08:43:02;4.60;;;1.98;;
74459;SDS011;62902;48.854;9.292;2022-11-20T08:45:29;4.47;;;1.70;;
74459;SDS011;62902;48.854;9.292;2022-11-20T08:48:00;3.70;;;1.60;;
74459;SDS011;62902;48.854;9.292;2022-11-20T08:50:28;3.20;;;1.60;;
74459;SDS011;62902;48.854;9.292;2022-11-20T08:53:02;4.72;;;1.48;;
74459;SDS011;62902;48.854;9.292;2022-11-20T08:55:30;6.90;;;1.95;;
74459;SDS011;62902;48.854;9.292;2022-11-20T08:57:56;7.45;;;1.30;;
74459;SDS011;62902;48.854;9.292;2022-11-20T09:00:23;3.45;;;1.50;;
74459;SDS011;62902;48.854;9.292;2022-11-20T09:02:50;4.55;;;1.50;;
74459;SDS011;62902;48.854;9.292;2022-11-20T09:05:16;3.25;;;1.50;;
74459;SDS011;62902;48.854;9.292;2022-11-20T09:07:43;4.07;;;1.45;;
74459;SDS011;62902;48.854;9.292;2022-11-20T09:10:09;4.38;;;1.20;;
74459;SDS011;62902;48.854;9.292;2022-11-20T09:13:00;4.93;;;1.48;;
74459;SDS011;62902;48.854;9.292;2022-11-20T09:15:26;3.47;;;1.35;;
74459;SDS011;62902;48.854;9.292;2022-11-20T09:17:54;2.83;;;1.15;;
74459;SDS011;62902;48.854;9.292;2022-11-20T09:20:23;2.25;;;0.90;;
74459;SDS011;62902;48.854;9.292;2022-11-20T09:22:50;1.73;;;0.80;;
74459;SDS011;62902;48.854;9.292;2022-11-20T09:25:19;1.95;;;0.80;;
74459;SDS011;62902;48.854;9.292;2022-11-20T09:27:46;1.13;;;0.60;;
74459;SDS011;62902;48.854;9.292;2022-11-20T09:30:16;2.80;;;0.95;;
74459;SDS011;62902;48.854;9.292;2022-11-20T09:32:42;1.52;;;0.70;;
74459;SDS011;62902;48.854;9.292;2022-11-20T09:35:09;1.23;;;0.40;;
74459;SDS011;62902;48.854;9.292;2022-11-20T09:37:37;1.17;;;0.52;;
74459;SDS011;62902;48.854;9.292;2022-11-20T09:40:03;1.67;;;0.60;;
74459;SDS011;62902;48.854;9.292;2022-11-20T09:50:26;2.15;;;0.50;;
74459;SDS011;62902;48.854;9.292;2022-11-20T09:56:15;0.90;;;0.47;;
74459;SDS011;62902;48.854;9.292;2022-11-20T09:58:50;2.30;;;0.57;;
74459;SDS011;62902;48.854;9.292;2022-11-20T10:01:20;2.08;;;0.82;;
74459;SDS011;62902;48.854;9.292;2022-11-20T10:06:28;1.95;;;0.70;;
74459;SDS011;62902;48.854;9.292;2022-11-20T10:12:04;1.38;;;0.60;;
74459;SDS011;62902;48.854;9.292;2022-11-20T10:22:42;1.60;;;0.80;;
74459;SDS011;62902;48.854;9.292;2022-11-20T10:25:14;1.50;;;0.60;;
74459;SDS011;62902;48.854;9.292;2022-11-20T10:30:37;1.67;;;0.80;;
74459;SDS011;62902;48.854;9.292;2022-11-20T10:33:18;1.08;;;0.57;;
74459;SDS011;62902;48.854;9.292;2022-11-20T10:41:15;2.05;;;0.80;;
74459;SDS011;62902;48.854;9.292;2022-11-20T10:46:30;2.17;;;1.00;;
74459;SDS011;62902;48.854;9.292;2022-11-20T10:49:04;2.03;;;0.85;;
74459;SDS011;62902;48.854;9.292;2022-11-20T10:51:38;5.13;;;2.13;;
74459;SDS011;62902;48.854;9.292;2022-11-20T10:56:48;1.55;;;0.70;;
74459;SDS011;62902;48.854;9.292;2022-11-20T11:02:18;1.70;;;0.82;;
74459;SDS011;62902;48.854;9.292;2022-11-20T11:04:49;2.50;;;0.80;;
74459;SDS011;62902;48.854;9.292;2022-11-20T11:07:25;2.35;;;0.88;;
74459;SDS011;62902;48.854;9.292;2022-11-20T11:09:54;1.70;;;0.77;;
74459;SDS011;62902;48.854;9.292;2022-11-20T11:12:22;1.85;;;1.00;;
74459;SDS011;62902;48.854;9.292;2022-11-20T11:14:51;4.18;;;1.20;;
74459;SDS011;62902;48.854;9.292;2022-11-20T11:17:20;3.55;;;1.30;;
74459;SDS011;62902;48.854;9.292;2022-11-20T11:19:59;3.65;;;1.27;;
74459;SDS011;62902;48.854;9.292;2022-11-20T11:22:25;3.70;;;1.33;;
74459;SDS011;62902;48.854;9.292;2022-11-20T11:24:55;2.75;;;1.20;;
74459;SDS011;62902;48.854;9.292;2022-11-20T11:27:22;2.88;;;1.20;;
74459;SDS011;62902;48.854;9.292;2022-11-20T11:29:49;2.75;;;1.20;;
74459;SDS011;62902;48.854;9.292;2022-11-20T11:32:17;3.65;;;1.30;;
74459;SDS011;62902;48.854;9.292;2022-11-20T11:35:03;3.40;;;1.38;;
74459;SDS011;62902;48.854;9.292;2022-11-20T11:37:35;3.78;;;1.27;;
74459;SDS011;62902;48.854;9.292;2022-11-20T11:40:03;2.55;;;1.10;;
74459;SDS011;62902;48.854;9.292;2022-11-20T11:42:56;2.55;;;1.25;;
74459;SDS011;62902;48.854;9.292;2022-11-20T11:45:25;3.20;;;1.45;;
74459;SDS011;62902;48.854;9.292;2022-11-20T11:47:53;3.05;;;1.13;;
74459;SDS011;62902;48.854;9.292;2022-11-20T11:50:22;15.35;;;1.60;;
74459;SDS011;62902;48.854;9.292;2022-11-20T11:58:46;4.43;;;0.80;;
74459;SDS011;62902;48.854;9.292;2022-11-20T12:04:04;4.85;;;1.48;;
74459;SDS011;62902;48.854;9.292;2022-11-20T12:06:37;3.38;;;1.42;;
74459;SDS011;62902;48.854;9.292;2022-11-20T12:11:49;4.22;;;1.50;;
74459;SDS011;62902;48.854;9.292;2022-11-20T12:14:32;4.45;;;1.67;;
74459;SDS011;62902;48.854;9.292;2022-11-20T12:17:03;2.60;;;1.25;;
74459;SDS011;62902;48.854;9.292;2022-11-20T12:19:31;3.72;;;1.13;;
74459;SDS011;62902;48.854;9.292;2022-11-20T12:22:10;4.03;;;1.17;;
74459;SDS011;62902;48.854;9.292;2022-11-20T12:24:52;4.05;;;1.13;;
74459;SDS011;62902;48.854;9.292;2022-11-20T12:27:40;4.18;;;1.05;;
74459;SDS011;62902;48.854;9.292;2022-11-20T12:30:14;2.55;;;1.00;;
74459;SDS011;62902;48.854;9.292;2022-11-20T12:38:30;2.88;;;0.90;;
74459;SDS011;62902;48.854;9.292;2022-11-20T12:53:33;1.60;;;0.52;;
74459;SDS011;62902;48.854;9.292;2022-11-20T12:56:13;4.88;;;0.90;;
74459;SDS011;62902;48.854;9.292;2022-11-20T13:07:31;2.22;;;0.52;;
74459;SDS011;62902;48.854;9.292;2022-11-20T13:09:59;1.85;;;0.80;;
74459;SDS011;62902;48.854;9.292;2022-11-20T13:15:21;3.10;;;0.98;;
74459;SDS011;62902;48.854;9.292;2022-11-20T13:17:59;1.42;;;0.52;;
74459;SDS011;62902;48.854;9.292;2022-11-20T13:20:27;2.53;;;0.68;;
74459;SDS011;62902;48.854;9.292;2022-11-20T13:22:55;2.47;;;0.70;;
74459;SDS011;62902;48.854;9.292;2022-11-20T13:27:52;3.67;;;0.68;;
74459;SDS011;62902;48.854;9.292;2022-11-20T13:30:21;2.13;;;0.80;;
74459;SDS011;62902;48.854;9.292;2022-11-20T13:35:32;1.95;;;0.80;;
74459;SDS011;62902;48.854;9.292;2022-11-20T13:38:10;1.38;;;0.50;;
74459;SDS011;62902;48.854;9.292;2022-11-20T13:40:39;3.13;;;0.82;;
74459;SDS011;62902;48.854;9.292;2022-11-20T13:46:00;1.85;;;0.45;;
74459;SDS011;62902;48.854;9.292;2022-11-20T13:48:32;2.83;;;0.68;;
74459;SDS011;62902;48.854;9.292;2022-11-20T13:53:52;1.75;;;0.52;;
74459;SDS011;62902;48.854;9.292;2022-11-20T13:57:16;2.30;;;0.80;;
74459;SDS011;62902;48.854;9.292;2022-11-20T14:02:20;1.63;;;0.52;;
74459;SDS011;62902;48.854;9.292;2022-11-20T14:04:54;5.00;;;0.85;;
74459;SDS011;62902;48.854;9.292;2022-11-20T14:07:24;1.83;;;0.50;;
74459;SDS011;62902;48.854;9.292;2022-11-20T14:09:54;2.40;;;0.52;;
74459;SDS011;62902;48.854;9.292;2022-11-20T14:12:32;2.92;;;0.70;;
74459;SDS011;62902;48.854;9.292;2022-11-20T14:15:00;3.92;;;0.60;;
74459;SDS011;62902;48.854;9.292;2022-11-20T14:17:34;1.55;;;0.52;;
74459;SDS011;62902;48.854;9.292;2022-11-20T14:20:02;2.13;;;0.43;;
74459;SDS011;62902;48.854;9.292;2022-11-20T14:22:30;2.30;;;0.50;;
74459;SDS011;62902;48.854;9.292;2022-11-20T14:25:02;2.90;;;0.90;;
74459;SDS011;62902;48.854;9.292;2022-11-20T14:27:28;2.80;;;0.82;;
74459;SDS011;62902;48.854;9.292;2022-11-20T14:29:55;1.35;;;0.50;;
74459;SDS011;62902;48.854;9.292;2022-11-20T14:32:22;3.92;;;0.80;;
74459;SDS011;62902;48.854;9.292;2022-11-20T14:34:52;1.00;;;0.40;;
74459;SDS011;62902;48.854;9.292;2022-11-20T14:37:24;1.08;;;0.50;;
74459;SDS011;62902;48.854;9.292;2022-11-20T14:39:54;2.20;;;0.70;;
74459;SDS011;62902;48.854;9.292;2022-11-20T14:42:23;1.60;;;0.60;;
74459;SDS011;62902;48.854;9.292;2022-11-20T14:44:51;2.03;;;0.68;;
74459;SDS011;62902;48.854;9.292;2022-11-20T14:47:27;1.95;;;0.70;;
74459;SDS011;62902;48.854;9.292;2022-11-20T14:49:55;2.10;;;0.70;;
74459;SDS011;62902;48.854;9.292;2022-11-20T14:52:24;2.55;;;0.60;;
74459;SDS011;62902;48.854;9.292;2022-11-20T14:54:58;2.72;;;0.80;;
74459;SDS011;62902;48.854;9.292;2022-11-20T14:57:29;3.42;;;0.60;;
74459;SDS011;62902;48.854;9.292;2022-11-20T15:02:34;2.03;;;0.90;;
74459;SDS011;62902;48.854;9.292;2022-11-20T15:05:01;3.63;;;1.00;;
74459;SDS011;62902;48.854;9.292;2022-11-20T15:07:32;2.72;;;0.80;;
74459;SDS011;62902;48.854;9.292;2022-11-20T15:10:01;2.97;;;0.80;;
74459;SDS011;62902;48.854;9.292;2022-11-20T15:12:40;2.00;;;0.73;;
74459;SDS011;62902;48.854;9.292;2022-11-20T15:15:17;3.33;;;0.88;;
74459;SDS011;62902;48.854;9.292;2022-11-20T15:17:47;2.65;;;0.93;;
74459;SDS011;62902;48.854;9.292;2022-11-20T15:20:14;2.17;;;0.75;;
74459;SDS011;62902;48.854;9.292;2022-11-20T15:22:42;2.22;;;0.82;;
74459;SDS011;62902;48.854;9.292;2022-11-20T15:25:15;4.72;;;1.05;;
74459;SDS011;62902;48.854;9.292;2022-11-20T15:30:14;4.13;;;1.40;;
74459;SDS011;62902;48.854;9.292;2022-11-20T15:32:43;3.97;;;1.10;;
74459;SDS011;62902;48.854;9.292;2022-11-20T15:35:10;1.88;;;0.82;;
74459;SDS011;62902;48.854;9.292;2022-11-20T15:37:37;1.98;;;0.90;;
74459;SDS011;62902;48.854;9.292;2022-11-20T15:40:04;2.25;;;0.88;;
74459;SDS011;62902;48.854;9.292;2022-11-20T15:42:32;3.10;;;1.02;;
74459;SDS011;62902;48.854;9.292;2022-11-20T15:44:59;5.20;;;1.67;;
74459;SDS011;62902;48.854;9.292;2022-11-20T15:47:30;3.30;;;1.10;;
74459;SDS011;62902;48.854;9.292;2022-11-20T15:49:57;4.22;;;1.40;;
74459;SDS011;62902;48.854;9.292;2022-11-20T15:52:24;3.38;;;1.38;;
74459;SDS011;62902;48.854;9.292;2022-11-20T15:54:51;3.35;;;1.30;;
74459;SDS011;62902;48.854;9.292;2022-11-20T15:57:18;3.90;;;1.33;;
74459;SDS011;62902;48.854;9.292;2022-11-20T15:59:45;5.28;;;1.15;;
74459;SDS011;62902;48.854;9.292;2022-11-20T16:02:11;2.40;;;1.00;;
74459;SDS011;62902;48.854;9.292;2022-11-20T16:04:44;3.00;;;1.08;;
74459;SDS011;62902;48.854;9.292;2022-11-20T16:07:11;3.05;;;1.20;;
74459;SDS011;62902;48.854;9.292;2022-11-20T16:09:39;2.65;;;1.13;;
74459;SDS011;62902;48.854;9.292;2022-11-20T16:12:07;4.00;;;1.60;;
74459;SDS011;62902;48.854;9.292;2022-11-20T16:14:55;2.67;;;1.10;;
74459;SDS011;62902;48.854;9.292;2022-11-20T16:17:40;4.05;;;1.23;;
74459;SDS011;62902;48.854;9.292;2022-11-20T16:20:13;2.75;;;0.90;;
74459;SDS011;62902;48.854;9.292;2022-11-20T16:22:39;2.38;;;1.02;;
74459;SDS011;62902;48.854;9.292;2022-11-20T16:25:06;2.17;;;0.98;;
74459;SDS011;62902;48.854;9.292;2022-11-20T16:27:33;4.80;;;1.10;;
74459;SDS011;62902;48.854;9.292;2022-11-20T16:29:59;5.93;;;1.10;;
74459;SDS011;62902;48.854;9.292;2022-11-20T16:32:26;3.20;;;1.00;;
74459;SDS011;62902;48.854;9.292;2022-11-20T16:34:53;2.60;;;0.95;;
74459;SDS011;62902;48.854;9.292;2022-11-20T16:37:20;3.15;;;1.20;;
74459;SDS011;62902;48.854;9.292;2022-11-20T16:39:46;2.40;;;1.05;;
74459;SDS011;62902;48.854;9.292;2022-11-20T16:42:14;3.35;;;1.33;;
74459;SDS011;62902;48.854;9.292;2022-11-20T16:44:41;3.53;;;1.50;;
74459;SDS011;62902;48.854;9.292;2022-11-20T16:47:08;5.15;;;1.50;;
74459;SDS011;62902;48.854;9.292;2022-11-20T16:49:34;4.95;;;1.65;;
74459;SDS011;62902;48.854;9.292;2022-11-20T16:52:01;3.60;;;1.70;;
74459;SDS011;62902;48.854;9.292;2022-11-20T16:54:27;3.58;;;1.40;;
74459;SDS011;62902;48.854;9.292;2022-11-20T16:56:54;3.78;;;1.63;;
74459;SDS011;62902;48.854;9.292;2022-11-20T16:59:20;3.85;;;1.60;;